sensor_id;sensor_type;location;lat;lon;timestamp;P1;durP1;ratioP1;P2;durP2;ratioP2
12202;SDS011;6164;42.178;24.622;2023-06-22T00:00:51;13.98;;;12.57;;
12202;SDS011;6164;42.178;24.622;2023-06-22T00:03:18;14.77;;;13.32;;
12202;SDS011;6164;42.178;24.622;2023-06-22T00:05:45;14.07;;;12.77;;
12202;SDS011;6164;42.178;24.622;2023-06-22T00:08:12;13.93;;;12.48;;
12202;SDS011;6164;42.178;24.622;2023-06-22T00:10:40;13.18;;;11.75;;
12202;SDS011;6164;42.178;24.622;2023-06-22T00:13:08;11.80;;;10.60;;
12202;SDS011;6164;42.178;24.622;2023-06-22T00:15:36;11.02;;;10.00;;
12202;SDS011;6164;42.178;24.622;2023-06-22T00:18:04;10.68;;;9.68;;
12202;SDS011;6164;42.178;24.622;2023-06-22T00:20:31;10.80;;;9.80;;
12202;SDS011;6164;42.178;24.622;2023-06-22T00:23:02;11.43;;;10.32;;
12202;SDS011;6164;42.178;24.622;2023-06-22T00:25:33;11.50;;;10.40;;
12202;SDS011;6164;42.178;24.622;2023-06-22T00:27:59;11.65;;;10.43;;
12202;SDS011;6164;42.178;24.622;2023-06-22T00:30:27;12.00;;;10.63;;
12202;SDS011;6164;42.178;24.622;2023-06-22T00:32:54;12.30;;;11.13;;
12202;SDS011;6164;42.178;24.622;2023-06-22T00:35:21;12.10;;;11.00;;
12202;SDS011;6164;42.178;24.622;2023-06-22T00:37:48;10.90;;;9.90;;
12202;SDS011;6164;42.178;24.622;2023-06-22T00:40:16;11.38;;;10.38;;
12202;SDS011;6164;42.178;24.622;2023-06-22T00:42:46;11.00;;;9.88;;
12202;SDS011;6164;42.178;24.622;2023-06-22T00:45:13;10.02;;;9.05;;
12202;SDS011;6164;42.178;24.622;2023-06-22T00:47:42;11.48;;;10.27;;
12202;SDS011;6164;42.178;24.622;2023-06-22T00:50:09;13.63;;;9.70;;
12202;SDS011;6164;42.178;24.622;2023-06-22T00:52:39;10.68;;;9.63;;
12202;SDS011;6164;42.178;24.622;2023-06-22T00:55:09;9.55;;;8.73;;
12202;SDS011;6164;42.178;24.622;2023-06-22T00:57:36;10.60;;;9.70;;
12202;SDS011;6164;42.178;24.622;2023-06-22T01:00:03;10.02;;;9.13;;
12202;SDS011;6164;42.178;24.622;2023-06-22T01:02:33;10.50;;;9.55;;
12202;SDS011;6164;42.178;24.622;2023-06-22T01:05:03;10.40;;;9.40;;
12202;SDS011;6164;42.178;24.622;2023-06-22T01:07:31;10.65;;;9.35;;
12202;SDS011;6164;42.178;24.622;2023-06-22T01:10:03;9.85;;;8.95;;
12202;SDS011;6164;42.178;24.622;2023-06-22T01:12:36;10.60;;;9.55;;
12202;SDS011;6164;42.178;24.622;2023-06-22T01:15:08;10.20;;;9.20;;
12202;SDS011;6164;42.178;24.622;2023-06-22T01:17:40;11.05;;;9.95;;
12202;SDS011;6164;42.178;24.622;2023-06-22T01:20:10;10.60;;;9.48;;
12202;SDS011;6164;42.178;24.622;2023-06-22T01:22:43;11.68;;;10.50;;
12202;SDS011;6164;42.178;24.622;2023-06-22T01:25:19;10.63;;;9.73;;
12202;SDS011;6164;42.178;24.622;2023-06-22T01:27:53;11.88;;;10.80;;
12202;SDS011;6164;42.178;24.622;2023-06-22T01:30:27;12.25;;;10.98;;
12202;SDS011;6164;42.178;24.622;2023-06-22T01:32:56;12.00;;;10.85;;
12202;SDS011;6164;42.178;24.622;2023-06-22T01:35:24;11.80;;;10.70;;
12202;SDS011;6164;42.178;24.622;2023-06-22T01:37:51;13.10;;;11.27;;
12202;SDS011;6164;42.178;24.622;2023-06-22T01:40:19;12.80;;;11.50;;
12202;SDS011;6164;42.178;24.622;2023-06-22T01:42:46;12.82;;;11.35;;
12202;SDS011;6164;42.178;24.622;2023-06-22T01:45:14;12.38;;;11.05;;
12202;SDS011;6164;42.178;24.622;2023-06-22T01:47:43;12.40;;;11.13;;
12202;SDS011;6164;42.178;24.622;2023-06-22T01:50:11;11.38;;;10.27;;
12202;SDS011;6164;42.178;24.622;2023-06-22T01:52:38;11.95;;;10.70;;
12202;SDS011;6164;42.178;24.622;2023-06-22T01:55:05;12.18;;;10.88;;
12202;SDS011;6164;42.178;24.622;2023-06-22T01:57:33;12.95;;;11.35;;
12202;SDS011;6164;42.178;24.622;2023-06-22T02:00:01;12.68;;;11.38;;
12202;SDS011;6164;42.178;24.622;2023-06-22T02:02:31;13.38;;;12.18;;
12202;SDS011;6164;42.178;24.622;2023-06-22T02:05:07;13.82;;;12.52;;
12202;SDS011;6164;42.178;24.622;2023-06-22T02:07:38;13.70;;;12.40;;
12202;SDS011;6164;42.178;24.622;2023-06-22T02:10:08;14.70;;;13.27;;
12202;SDS011;6164;42.178;24.622;2023-06-22T02:12:38;15.25;;;13.55;;
12202;SDS011;6164;42.178;24.622;2023-06-22T02:15:08;15.10;;;13.60;;
12202;SDS011;6164;42.178;24.622;2023-06-22T02:17:36;16.27;;;14.05;;
12202;SDS011;6164;42.178;24.622;2023-06-22T02:20:02;16.25;;;12.95;;
12202;SDS011;6164;42.178;24.622;2023-06-22T02:22:32;14.48;;;12.50;;
12202;SDS011;6164;42.178;24.622;2023-06-22T02:24:59;14.38;;;13.02;;
12202;SDS011;6164;42.178;24.622;2023-06-22T02:27:26;16.15;;;13.00;;
12202;SDS011;6164;42.178;24.622;2023-06-22T02:29:52;14.50;;;13.10;;
12202;SDS011;6164;42.178;24.622;2023-06-22T02:32:19;13.63;;;12.32;;
12202;SDS011;6164;42.178;24.622;2023-06-22T02:34:46;13.23;;;12.02;;
12202;SDS011;6164;42.178;24.622;2023-06-22T02:37:12;15.20;;;12.75;;
12202;SDS011;6164;42.178;24.622;2023-06-22T02:39:41;14.15;;;12.27;;
12202;SDS011;6164;42.178;24.622;2023-06-22T02:42:08;12.90;;;11.63;;
12202;SDS011;6164;42.178;24.622;2023-06-22T02:44:36;15.60;;;12.57;;
12202;SDS011;6164;42.178;24.622;2023-06-22T02:47:03;12.82;;;11.52;;
12202;SDS011;6164;42.178;24.622;2023-06-22T02:49:30;13.70;;;12.30;;
12202;SDS011;6164;42.178;24.622;2023-06-22T02:51:57;13.57;;;12.30;;
12202;SDS011;6164;42.178;24.622;2023-06-22T02:54:24;13.70;;;12.40;;
12202;SDS011;6164;42.178;24.622;2023-06-22T02:56:52;14.45;;;12.68;;
12202;SDS011;6164;42.178;24.622;2023-06-22T02:59:19;13.80;;;12.50;;
12202;SDS011;6164;42.178;24.622;2023-06-22T03:01:48;13.35;;;12.05;;
12202;SDS011;6164;42.178;24.622;2023-06-22T03:04:15;14.45;;;12.85;;
12202;SDS011;6164;42.178;24.622;2023-06-22T03:06:42;14.52;;;13.02;;
12202;SDS011;6164;42.178;24.622;2023-06-22T03:09:09;13.85;;;12.45;;
12202;SDS011;6164;42.178;24.622;2023-06-22T03:11:35;14.77;;;13.27;;
12202;SDS011;6164;42.178;24.622;2023-06-22T03:14:04;15.02;;;13.63;;
12202;SDS011;6164;42.178;24.622;2023-06-22T03:16:30;14.45;;;13.02;;
12202;SDS011;6164;42.178;24.622;2023-06-22T03:18:58;14.85;;;13.45;;
12202;SDS011;6164;42.178;24.622;2023-06-22T03:21:28;14.27;;;12.77;;
12202;SDS011;6164;42.178;24.622;2023-06-22T03:23:55;15.05;;;13.38;;
12202;SDS011;6164;42.178;24.622;2023-06-22T03:26:22;14.27;;;12.88;;
12202;SDS011;6164;42.178;24.622;2023-06-22T03:28:54;13.93;;;12.52;;
12202;SDS011;6164;42.178;24.622;2023-06-22T03:31:22;14.13;;;12.48;;
12202;SDS011;6164;42.178;24.622;2023-06-22T03:33:50;13.25;;;11.95;;
12202;SDS011;6164;42.178;24.622;2023-06-22T03:36:17;13.43;;;12.02;;
12202;SDS011;6164;42.178;24.622;2023-06-22T03:38:45;13.23;;;12.02;;
12202;SDS011;6164;42.178;24.622;2023-06-22T03:41:11;24.10;;;12.63;;
12202;SDS011;6164;42.178;24.622;2023-06-22T03:43:38;22.13;;;13.15;;
12202;SDS011;6164;42.178;24.622;2023-06-22T03:46:05;13.50;;;12.20;;
12202;SDS011;6164;42.178;24.622;2023-06-22T03:48:33;14.80;;;12.35;;
12202;SDS011;6164;42.178;24.622;2023-06-22T03:51:00;16.00;;;12.32;;
12202;SDS011;6164;42.178;24.622;2023-06-22T03:53:28;13.68;;;12.27;;
12202;SDS011;6164;42.178;24.622;2023-06-22T03:55:55;34.25;;;13.35;;
12202;SDS011;6164;42.178;24.622;2023-06-22T03:58:22;15.60;;;12.45;;
12202;SDS011;6164;42.178;24.622;2023-06-22T04:00:50;14.40;;;13.00;;
12202;SDS011;6164;42.178;24.622;2023-06-22T04:03:18;16.95;;;12.80;;
12202;SDS011;6164;42.178;24.622;2023-06-22T04:05:47;14.88;;;13.23;;
12202;SDS011;6164;42.178;24.622;2023-06-22T04:08:14;15.10;;;13.52;;
12202;SDS011;6164;42.178;24.622;2023-06-22T04:10:41;17.05;;;12.80;;
12202;SDS011;6164;42.178;24.622;2023-06-22T04:13:08;14.55;;;13.05;;
12202;SDS011;6164;42.178;24.622;2023-06-22T04:15:34;16.67;;;14.55;;
12202;SDS011;6164;42.178;24.622;2023-06-22T04:18:01;14.65;;;12.77;;
12202;SDS011;6164;42.178;24.622;2023-06-22T04:20:28;15.20;;;13.68;;
12202;SDS011;6164;42.178;24.622;2023-06-22T04:22:57;13.82;;;12.52;;
12202;SDS011;6164;42.178;24.622;2023-06-22T04:25:24;14.30;;;12.90;;
12202;SDS011;6164;42.178;24.622;2023-06-22T04:27:51;12.48;;;11.30;;
12202;SDS011;6164;42.178;24.622;2023-06-22T04:30:21;12.13;;;10.85;;
12202;SDS011;6164;42.178;24.622;2023-06-22T04:32:47;12.77;;;11.35;;
12202;SDS011;6164;42.178;24.622;2023-06-22T04:35:21;14.40;;;10.57;;
12202;SDS011;6164;42.178;24.622;2023-06-22T04:37:48;11.57;;;10.38;;
12202;SDS011;6164;42.178;24.622;2023-06-22T04:40:24;15.65;;;10.52;;
12202;SDS011;6164;42.178;24.622;2023-06-22T04:42:50;12.20;;;10.15;;
12202;SDS011;6164;42.178;24.622;2023-06-22T04:45:20;11.98;;;9.60;;
12202;SDS011;6164;42.178;24.622;2023-06-22T04:47:47;11.10;;;9.90;;
12202;SDS011;6164;42.178;24.622;2023-06-22T04:50:13;10.93;;;9.98;;
12202;SDS011;6164;42.178;24.622;2023-06-22T04:52:41;10.20;;;9.20;;
12202;SDS011;6164;42.178;24.622;2023-06-22T04:55:08;13.40;;;9.88;;
12202;SDS011;6164;42.178;24.622;2023-06-22T04:57:36;10.90;;;9.23;;
12202;SDS011;6164;42.178;24.622;2023-06-22T05:00:05;10.27;;;9.38;;
12202;SDS011;6164;42.178;24.622;2023-06-22T05:02:37;10.35;;;9.20;;
12202;SDS011;6164;42.178;24.622;2023-06-22T05:05:04;9.63;;;8.73;;
12202;SDS011;6164;42.178;24.622;2023-06-22T05:07:32;16.27;;;9.60;;
12202;SDS011;6164;42.178;24.622;2023-06-22T05:09:59;9.57;;;8.57;;
12202;SDS011;6164;42.178;24.622;2023-06-22T05:12:27;9.77;;;8.70;;
12202;SDS011;6164;42.178;24.622;2023-06-22T05:14:56;10.93;;;9.88;;
12202;SDS011;6164;42.178;24.622;2023-06-22T05:17:22;10.02;;;8.82;;
12202;SDS011;6164;42.178;24.622;2023-06-22T05:19:49;11.88;;;9.18;;
